sensor_id;sensor_type;location;lat;lon;timestamp;pressure;altitude;pressure_sealevel;temperature;humidity
30708;BME280;17458;48.958;8.284;2023-05-23T00:01:43;100195.03;;;21.34;71.59
30708;BME280;17458;48.958;8.284;2023-05-23T00:04:27;100195.13;;;21.46;71.23
30708;BME280;17458;48.958;8.284;2023-05-23T00:07:11;100199.63;;;21.47;71.26
30708;BME280;17458;48.958;8.284;2023-05-23T00:09:56;100184.31;;;21.47;71.00
30708;BME280;17458;48.958;8.284;2023-05-23T00:12:40;100193.31;;;21.54;70.89
30708;BME280;17458;48.958;8.284;2023-05-23T00:15:25;100205.00;;;21.45;71.20
30708;BME280;17458;48.958;8.284;2023-05-23T00:18:10;100202.31;;;21.53;71.25
30708;BME280;17458;48.958;8.284;2023-05-23T00:20:54;100204.09;;;21.49;71.18
30708;BME280;17458;48.958;8.284;2023-05-23T00:23:39;100202.34;;;21.62;70.91
30708;BME280;17458;48.958;8.284;2023-05-23T00:26:28;100209.56;;;21.60;70.51
30708;BME280;17458;48.958;8.284;2023-05-23T00:29:15;100213.16;;;21.56;70.43
30708;BME280;17458;48.958;8.284;2023-05-23T00:32:00;100205.91;;;21.44;70.79
30708;BME280;17458;48.958;8.284;2023-05-23T00:34:44;100217.63;;;21.46;70.63
30708;BME280;17458;48.958;8.284;2023-05-23T00:37:28;100211.31;;;21.52;70.43
30708;BME280;17458;48.958;8.284;2023-05-23T00:40:12;100208.63;;;21.44;70.24
30708;BME280;17458;48.958;8.284;2023-05-23T00:42:56;100208.56;;;21.35;70.53
30708;BME280;17458;48.958;8.284;2023-05-23T00:45:40;100207.63;;;21.27;70.73
30708;BME280;17458;48.958;8.284;2023-05-23T00:48:25;100204.94;;;21.27;70.83
30708;BME280;17458;48.958;8.284;2023-05-23T00:51:09;100210.38;;;21.33;70.73
30708;BME280;17458;48.958;8.284;2023-05-23T00:53:53;100211.19;;;21.20;70.98
30708;BME280;17458;48.958;8.284;2023-05-23T00:56:38;100215.78;;;21.32;71.06
30708;BME280;17458;48.958;8.284;2023-05-23T00:59:24;100222.09;;;21.38;70.62
30708;BME280;17458;48.958;8.284;2023-05-23T01:02:08;100229.25;;;21.35;70.71
30708;BME280;17458;48.958;8.284;2023-05-23T01:04:54;100225.69;;;21.33;70.99
30708;BME280;17458;48.958;8.284;2023-05-23T01:07:37;100218.44;;;21.29;71.14
30708;BME280;17458;48.958;8.284;2023-05-23T01:10:24;100225.66;;;21.34;70.99
30708;BME280;17458;48.958;8.284;2023-05-23T01:13:23;100224.78;;;21.40;70.63
30708;BME280;17458;48.958;8.284;2023-05-23T01:16:16;100222.09;;;21.38;70.56
30708;BME280;17458;48.958;8.284;2023-05-23T01:19:25;100209.41;;;21.25;70.65
30708;BME280;17458;48.958;8.284;2023-05-23T01:28:04;100219.19;;;21.05;71.54
30708;BME280;17458;48.958;8.284;2023-05-23T01:30:51;100218.28;;;21.01;71.40
30708;BME280;17458;48.958;8.284;2023-05-23T01:33:39;100223.69;;;21.01;71.38
30708;BME280;17458;48.958;8.284;2023-05-23T01:36:24;100221.75;;;20.82;71.72
30708;BME280;17458;48.958;8.284;2023-05-23T01:39:10;100225.34;;;20.81;71.78
30708;BME280;17458;48.958;8.284;2023-05-23T01:41:54;100221.75;;;20.77;71.73
30708;BME280;17458;48.958;8.284;2023-05-23T01:44:38;100215.41;;;20.75;71.68
30708;BME280;17458;48.958;8.284;2023-05-23T01:47:23;100220.78;;;20.71;71.83
30708;BME280;17458;48.958;8.284;2023-05-23T01:50:09;100227.09;;;20.71;72.12
30708;BME280;17458;48.958;8.284;2023-05-23T01:52:54;100236.06;;;20.70;72.72
30708;BME280;17458;48.958;8.284;2023-05-23T01:55:40;100233.28;;;20.58;73.32
30708;BME280;17458;48.958;8.284;2023-05-23T01:58:25;100233.28;;;20.60;73.08
30708;BME280;17458;48.958;8.284;2023-05-23T02:01:09;100238.56;;;20.43;73.66
30708;BME280;17458;48.958;8.284;2023-05-23T02:03:54;100235.50;;;20.09;75.05
30708;BME280;17458;48.958;8.284;2023-05-23T02:06:38;100239.03;;;20.02;76.39
30708;BME280;17458;48.958;8.284;2023-05-23T02:09:22;100233.94;;;20.31;74.91
30708;BME280;17458;48.958;8.284;2023-05-23T02:12:06;100241.31;;;20.49;74.24
30708;BME280;17458;48.958;8.284;2023-05-23T02:14:50;100237.75;;;20.56;73.70
30708;BME280;17458;48.958;8.284;2023-05-23T02:17:37;100241.31;;;20.52;73.69
30708;BME280;17458;48.958;8.284;2023-05-23T02:20:22;100243.16;;;20.58;73.58
30708;BME280;17458;48.958;8.284;2023-05-23T02:23:07;100228.69;;;20.49;73.77
30708;BME280;17458;48.958;8.284;2023-05-23T02:25:51;100233.22;;;20.52;73.73
30708;BME280;17458;48.958;8.284;2023-05-23T02:28:35;100239.56;;;20.56;73.55
30708;BME280;17458;48.958;8.284;2023-05-23T02:31:19;100251.19;;;20.47;73.68
30708;BME280;17458;48.958;8.284;2023-05-23T02:34:03;100245.84;;;20.56;73.42
30708;BME280;17458;48.958;8.284;2023-05-23T02:36:47;100245.13;;;20.77;72.72
30708;BME280;17458;48.958;8.284;2023-05-23T02:39:33;100254.03;;;20.68;72.98
30708;BME280;17458;48.958;8.284;2023-05-23T02:42:17;100238.69;;;20.60;73.17
30708;BME280;17458;48.958;8.284;2023-05-23T02:45:02;100245.94;;;20.67;72.91
30708;BME280;17458;48.958;8.284;2023-05-23T02:47:47;100246.78;;;20.58;73.11
30708;BME280;17458;48.958;8.284;2023-05-23T02:50:31;100249.34;;;20.44;73.29
30708;BME280;17458;48.958;8.284;2023-05-23T02:53:15;100259.19;;;20.39;73.56
30708;BME280;17458;48.958;8.284;2023-05-23T02:55:59;100252.03;;;20.41;73.57
30708;BME280;17458;48.958;8.284;2023-05-23T02:58:43;100252.84;;;20.36;73.81
30708;BME280;17458;48.958;8.284;2023-05-23T03:01:27;100248.38;;;20.36;73.97
30708;BME280;17458;48.958;8.284;2023-05-23T03:04:11;100259.19;;;20.39;74.19
30708;BME280;17458;48.958;8.284;2023-05-23T03:06:56;100252.97;;;20.45;74.05
30708;BME280;17458;48.958;8.284;2023-05-23T03:09:42;100240.31;;;20.39;74.42
30708;BME280;17458;48.958;8.284;2023-05-23T03:12:29;100253.03;;;20.56;74.26
30708;BME280;17458;48.958;8.284;2023-05-23T03:15:13;100252.09;;;20.50;74.11
30708;BME280;17458;48.958;8.284;2023-05-23T03:17:59;100251.13;;;20.41;74.74
30708;BME280;17458;48.958;8.284;2023-05-23T03:20:43;100258.41;;;20.54;74.35
30708;BME280;17458;48.958;8.284;2023-05-23T03:23:27;100262.00;;;20.53;74.08
30708;BME280;17458;48.958;8.284;2023-05-23T03:26:11;100273.72;;;20.55;74.18
30708;BME280;17458;48.958;8.284;2023-05-23T03:28:55;100266.56;;;20.57;74.08
30708;BME280;17458;48.958;8.284;2023-05-23T03:31:39;100268.38;;;20.60;74.29
30708;BME280;17458;48.958;8.284;2023-05-23T03:34:23;100272.91;;;20.62;73.76
30708;BME280;17458;48.958;8.284;2023-05-23T03:37:09;100276.50;;;20.63;74.23
30708;BME280;17458;48.958;8.284;2023-05-23T03:39:54;100284.66;;;20.72;73.91
30708;BME280;17458;48.958;8.284;2023-05-23T03:42:38;100288.28;;;20.78;73.39
30708;BME280;17458;48.958;8.284;2023-05-23T03:45:22;100283.81;;;20.77;73.48
30708;BME280;17458;48.958;8.284;2023-05-23T03:48:06;100287.41;;;20.76;73.45
30708;BME280;17458;48.958;8.284;2023-05-23T03:50:50;100293.69;;;20.80;73.25
30708;BME280;17458;48.958;8.284;2023-05-23T03:53:35;100290.16;;;20.87;73.41
30708;BME280;17458;48.958;8.284;2023-05-23T03:56:19;100294.66;;;20.86;73.18
30708;BME280;17458;48.958;8.284;2023-05-23T03:59:04;100288.38;;;20.86;73.19
30708;BME280;17458;48.958;8.284;2023-05-23T04:01:49;100293.59;;;20.63;74.45
30708;BME280;17458;48.958;8.284;2023-05-23T04:04:34;100291.84;;;20.70;74.18
30708;BME280;17458;48.958;8.284;2023-05-23T04:07:18;100292.81;;;20.81;73.43
30708;BME280;17458;48.958;8.284;2023-05-23T04:10:02;100294.59;;;20.76;73.37
30708;BME280;17458;48.958;8.284;2023-05-23T04:12:46;100302.72;;;20.82;73.28
30708;BME280;17458;48.958;8.284;2023-05-23T04:15:33;100302.81;;;20.91;72.52
30708;BME280;17458;48.958;8.284;2023-05-23T04:18:24;100304.66;;;20.98;72.08
30708;BME280;17458;48.958;8.284;2023-05-23T04:21:07;100303.72;;;20.96;71.86
30708;BME280;17458;48.958;8.284;2023-05-23T04:23:56;100310.09;;;21.06;71.46
30708;BME280;17458;48.958;8.284;2023-05-23T04:26:41;100310.09;;;21.04;71.52
30708;BME280;17458;48.958;8.284;2023-05-23T04:29:25;100315.50;;;21.04;71.44
30708;BME280;17458;48.958;8.284;2023-05-23T04:32:12;100307.31;;;20.91;71.04
30708;BME280;17458;48.958;8.284;2023-05-23T04:34:56;100311.78;;;20.92;71.28
30708;BME280;17458;48.958;8.284;2023-05-23T04:37:41;100317.03;;;20.70;71.18
30708;BME280;17458;48.958;8.284;2023-05-23T04:40:27;100318.00;;;20.80;71.09
30708;BME280;17458;48.958;8.284;2023-05-23T04:43:19;100318.72;;;20.59;71.60
30708;BME280;17458;48.958;8.284;2023-05-23T04:46:11;100323.44;;;20.84;70.77
30708;BME280;17458;48.958;8.284;2023-05-23T04:49:01;100323.47;;;20.92;70.54
30708;BME280;17458;48.958;8.284;2023-05-23T04:51:46;100326.25;;;20.98;70.89
30708;BME280;17458;48.958;8.284;2023-05-23T04:54:44;100327.25;;;21.12;69.72
30708;BME280;17458;48.958;8.284;2023-05-23T04:57:29;100332.59;;;21.03;70.17
30708;BME280;17458;48.958;8.284;2023-05-23T05:00:13;100332.63;;;21.09;70.13
30708;BME280;17458;48.958;8.284;2023-05-23T05:02:58;100326.44;;;21.24;70.53
30708;BME280;17458;48.958;8.284;2023-05-23T05:05:45;100334.63;;;21.33;70.63
30708;BME280;17458;48.958;8.284;2023-05-23T05:08:29;100334.66;;;21.41;69.75
30708;BME280;17458;48.958;8.284;2023-05-23T05:11:14;100326.63;;;21.53;70.00
30708;BME280;17458;48.958;8.284;2023-05-23T05:13:59;100337.41;;;21.48;69.61
30708;BME280;17458;48.958;8.284;2023-05-23T05:16:43;100343.63;;;21.37;68.94
30708;BME280;17458;48.958;8.284;2023-05-23T05:19:29;100350.72;;;21.21;68.20
30708;BME280;17458;48.958;8.284;2023-05-23T05:22:13;100353.47;;;21.26;67.78
30708;BME280;17458;48.958;8.284;2023-05-23T05:24:57;100348.91;;;21.20;67.75
30708;BME280;17458;48.958;8.284;2023-05-23T05:27:41;100354.19;;;21.08;67.66
30708;BME280;17458;48.958;8.284;2023-05-23T05:30:28;100355.25;;;21.19;67.13
30708;BME280;17458;48.958;8.284;2023-05-23T05:33:16;100362.38;;;21.14;66.90
30708;BME280;17458;48.958;8.284;2023-05-23T05:36:02;100358.72;;;21.09;66.97
30708;BME280;17458;48.958;8.284;2023-05-23T05:38:47;100358.03;;;21.31;66.57
30708;BME280;17458;48.958;8.284;2023-05-23T05:41:32;100362.50;;;21.28;66.34
30708;BME280;17458;48.958;8.284;2023-05-23T05:44:16;100365.31;;;21.44;66.46
30708;BME280;17458;48.958;8.284;2023-05-23T05:47:02;100361.47;;;21.13;66.03
30708;BME280;17458;48.958;8.284;2023-05-23T05:49:47;100361.59;;;21.29;65.50
30708;BME280;17458;48.958;8.284;2023-05-23T05:52:31;100361.56;;;21.19;65.19
30708;BME280;17458;48.958;8.284;2023-05-23T05:55:15;100368.94;;;21.46;64.28
30708;BME280;17458;48.958;8.284;2023-05-23T05:58:03;100370.88;;;21.76;63.21
30708;BME280;17458;48.958;8.284;2023-05-23T06:00:56;100376.38;;;21.94;62.34
30708;BME280;17458;48.958;8.284;2023-05-23T06:03:41;100383.09;;;21.16;62.67
30708;BME280;17458;48.958;8.284;2023-05-23T06:06:26;100377.88;;;21.39;63.29
30708;BME280;17458;48.958;8.284;2023-05-23T06:09:11;100383.31;;;21.44;63.18
30708;BME280;17458;48.958;8.284;2023-05-23T06:11:55;100387.91;;;21.57;62.64
30708;BME280;17458;48.958;8.284;2023-05-23T06:14:40;100395.06;;;21.46;61.80
30708;BME280;17458;48.958;8.284;2023-05-23T06:17:24;100398.34;;;21.10;61.88
30708;BME280;17458;48.958;8.284;2023-05-23T06:20:09;100390.25;;;21.13;62.31
30708;BME280;17458;48.958;8.284;2023-05-23T06:22:56;100396.53;;;21.10;62.35
30708;BME280;17458;48.958;8.284;2023-05-23T06:25:40;100407.28;;;21.01;63.53
30708;BME280;17458;48.958;8.284;2023-05-23T06:28:24;100413.63;;;21.09;63.06
30708;BME280;17458;48.958;8.284;2023-05-23T06:31:09;100416.53;;;21.28;62.29
30708;BME280;17458;48.958;8.284;2023-05-23T06:33:53;100418.09;;;21.03;62.66
30708;BME280;17458;48.958;8.284;2023-05-23T06:36:37;100416.66;;;21.49;61.78
30708;BME280;17458;48.958;8.284;2023-05-23T06:39:21;100423.72;;;21.27;60.89
30708;BME280;17458;48.958;8.284;2023-05-23T06:42:05;100429.78;;;21.06;62.16
30708;BME280;17458;48.958;8.284;2023-05-23T06:45:06;100434.91;;;20.73;62.98
30708;BME280;17458;48.958;8.284;2023-05-23T06:47:51;100437.84;;;20.99;62.87
30708;BME280;17458;48.958;8.284;2023-05-23T06:50:35;100446.38;;;21.46;61.39
30708;BME280;17458;48.958;8.284;2023-05-23T06:53:21;100455.09;;;21.14;62.48
30708;BME280;17458;48.958;8.284;2023-05-23T06:56:06;100441.25;;;20.76;63.41
30708;BME280;17458;48.958;8.284;2023-05-23T06:58:58;100456.78;;;21.02;62.52
30708;BME280;17458;48.958;8.284;2023-05-23T07:01:42;100465.72;;;20.96;62.47
30708;BME280;17458;48.958;8.284;2023-05-23T07:04:26;100456.19;;;21.32;61.34
30708;BME280;17458;48.958;8.284;2023-05-23T07:07:12;100457.19;;;21.46;59.36
30708;BME280;17458;48.958;8.284;2023-05-23T07:09:55;100461.31;;;21.07;60.14
30708;BME280;17458;48.958;8.284;2023-05-23T07:12:40;100470.22;;;20.96;60.26
30708;BME280;17458;48.958;8.284;2023-05-23T07:15:24;100462.19;;;21.02;59.90
30708;BME280;17458;48.958;8.284;2023-05-23T07:18:17;100473.69;;;21.90;57.72
30708;BME280;17458;48.958;8.284;2023-05-23T07:21:01;100476.53;;;22.08;56.78
30708;BME280;17458;48.958;8.284;2023-05-23T07:23:46;100484.78;;;22.34;55.11
30708;BME280;17458;48.958;8.284;2023-05-23T07:26:30;100480.84;;;21.79;56.50
30708;BME280;17458;48.958;8.284;2023-05-23T07:29:14;100483.63;;;21.89;55.17
30708;BME280;17458;48.958;8.284;2023-05-23T07:31:58;100486.31;;;21.91;55.97
30708;BME280;17458;48.958;8.284;2023-05-23T07:34:45;100492.75;;;22.08;55.65
30708;BME280;17458;48.958;8.284;2023-05-23T07:37:29;100496.78;;;21.42;57.18
30708;BME280;17458;48.958;8.284;2023-05-23T07:40:13;100492.72;;;20.21;59.17
30708;BME280;17458;48.958;8.284;2023-05-23T07:42:57;100489.63;;;20.60;57.77
30708;BME280;17458;48.958;8.284;2023-05-23T07:45:43;100496.03;;;20.69;58.88
30708;BME280;17458;48.958;8.284;2023-05-23T07:48:27;100488.09;;;20.83;57.99
30708;BME280;17458;48.958;8.284;2023-05-23T07:51:11;100495.22;;;20.79;56.83
30708;BME280;17458;48.958;8.284;2023-05-23T07:53:55;100491.63;;;20.79;58.25
30708;BME280;17458;48.958;8.284;2023-05-23T07:56:41;100490.13;;;21.05;57.63
30708;BME280;17458;48.958;8.284;2023-05-23T07:59:26;100486.75;;;21.28;57.19
30708;BME280;17458;48.958;8.284;2023-05-23T08:02:11;100489.50;;;21.32;56.87
30708;BME280;17458;48.958;8.284;2023-05-23T08:04:57;100502.69;;;21.03;57.22
30708;BME280;17458;48.958;8.284;2023-05-23T08:07:42;100502.50;;;20.85;58.57
30708;BME280;17458;48.958;8.284;2023-05-23T08:10:28;100497.25;;;20.99;56.93
30708;BME280;17458;48.958;8.284;2023-05-23T08:13:19;100501.47;;;20.72;58.17
30708;BME280;17458;48.958;8.284;2023-05-23T08:16:23;100502.19;;;21.42;56.63
30708;BME280;17458;48.958;8.284;2023-05-23T08:19:07;100500.88;;;21.01;57.22
30708;BME280;17458;48.958;8.284;2023-05-23T08:21:53;100507.13;;;20.98;57.47
30708;BME280;17458;48.958;8.284;2023-05-23T08:24:38;100508.16;;;21.11;58.11
30708;BME280;17458;48.958;8.284;2023-05-23T08:27:22;100512.47;;;20.94;57.08
30708;BME280;17458;48.958;8.284;2023-05-23T08:30:12;100509.88;;;21.01;57.29
30708;BME280;17458;48.958;8.284;2023-05-23T08:32:57;100520.09;;;21.30;56.85
30708;BME280;17458;48.958;8.284;2023-05-23T08:35:41;100517.41;;;21.34;56.62
30708;BME280;17458;48.958;8.284;2023-05-23T08:38:27;100520.72;;;21.04;57.65
30708;BME280;17458;48.958;8.284;2023-05-23T08:41:22;100527.00;;;21.03;57.26
30708;BME280;17458;48.958;8.284;2023-05-23T08:44:11;100530.59;;;21.02;56.95
30708;BME280;17458;48.958;8.284;2023-05-23T08:47:04;100535.00;;;20.96;57.79
30708;BME280;17458;48.958;8.284;2023-05-23T08:50:07;100537.81;;;21.03;57.25
30708;BME280;17458;48.958;8.284;2023-05-23T08:52:57;100537.47;;;20.73;57.15
30708;BME280;17458;48.958;8.284;2023-05-23T08:55:42;100529.25;;;21.48;57.07
30708;BME280;17458;48.958;8.284;2023-05-23T08:58:30;100541.41;;;21.99;54.78
30708;BME280;17458;48.958;8.284;2023-05-23T09:01:14;100536.69;;;21.78;54.11
30708;BME280;17458;48.958;8.284;2023-05-23T09:04:01;100539.94;;;21.36;54.88
30708;BME280;17458;48.958;8.284;2023-05-23T09:07:09;100550.22;;;21.75;54.51
30708;BME280;17458;48.958;8.284;2023-05-23T09:09:55;100542.56;;;21.26;54.16
30708;BME280;17458;48.958;8.284;2023-05-23T09:12:40;100536.25;;;21.27;54.16
30708;BME280;17458;48.958;8.284;2023-05-23T09:15:25;100549.09;;;21.52;53.79
30708;BME280;17458;48.958;8.284;2023-05-23T09:18:10;100542.91;;;21.65;53.42
30708;BME280;17458;48.958;8.284;2023-05-23T09:20:54;100546.81;;;21.99;53.44
30708;BME280;17458;48.958;8.284;2023-05-23T09:23:40;100543.88;;;21.73;53.54
30708;BME280;17458;48.958;8.284;2023-05-23T09:26:25;100554.59;;;21.64;53.55
30708;BME280;17458;48.958;8.284;2023-05-23T09:29:12;100557.41;;;21.75;53.27
30708;BME280;17458;48.958;8.284;2023-05-23T09:32:10;100555.47;;;21.57;53.11
30708;BME280;17458;48.958;8.284;2023-05-23T09:34:56;100551.34;;;21.08;54.34
30708;BME280;17458;48.958;8.284;2023-05-23T09:37:44;100548.94;;;21.32;52.61
30708;BME280;17458;48.958;8.284;2023-05-23T09:40:30;100554.47;;;21.47;52.36
30708;BME280;17458;48.958;8.284;2023-05-23T09:43:18;100547.28;;;21.49;52.30
30708;BME280;17458;48.958;8.284;2023-05-23T09:46:09;100548.53;;;21.94;52.53
30708;BME280;17458;48.958;8.284;2023-05-23T09:48:53;100560.69;;;21.39;52.17
30708;BME280;17458;48.958;8.284;2023-05-23T09:51:38;100557.91;;;21.30;51.44
30708;BME280;17458;48.958;8.284;2023-05-23T09:54:22;100554.47;;;21.50;52.52
30708;BME280;17458;48.958;8.284;2023-05-23T09:57:09;100559.94;;;21.55;52.48
30708;BME280;17458;48.958;8.284;2023-05-23T09:59:57;100564.97;;;21.18;51.85
30708;BME280;17458;48.958;8.284;2023-05-23T10:03:12;100558.25;;;21.69;53.32
30708;BME280;17458;48.958;8.284;2023-05-23T10:05:59;100576.44;;;21.88;52.34
30708;BME280;17458;48.958;8.284;2023-05-23T10:09:06;100560.22;;;21.91;52.04
30708;BME280;17458;48.958;8.284;2023-05-23T10:14:44;100560.81;;;21.52;51.45
30708;BME280;17458;48.958;8.284;2023-05-23T10:17:41;100567.22;;;21.64;51.02
30708;BME280;17458;48.958;8.284;2023-05-23T10:20:30;100574.91;;;22.24;50.97
30708;BME280;17458;48.958;8.284;2023-05-23T10:23:16;100556.66;;;21.94;50.58
30708;BME280;17458;48.958;8.284;2023-05-23T10:26:03;100557.84;;;22.31;50.36
30708;BME280;17458;48.958;8.284;2023-05-23T10:28:48;100550.03;;;23.00;48.22
30708;BME280;17458;48.958;8.284;2023-05-23T10:31:34;100555.50;;;23.36;47.90
30708;BME280;17458;48.958;8.284;2023-05-23T10:35:03;100552.84;;;23.80;46.57
30708;BME280;17458;48.958;8.284;2023-05-23T10:38:16;100562.66;;;24.65;45.91
30708;BME280;17458;48.958;8.284;2023-05-23T10:43:46;100557.34;;;24.09;45.06
30708;BME280;17458;48.958;8.284;2023-05-23T10:46:54;100559.13;;;23.29;46.50
30708;BME280;17458;48.958;8.284;2023-05-23T10:49:51;100555.50;;;23.24;46.32
30708;BME280;17458;48.958;8.284;2023-05-23T10:52:39;100555.41;;;22.87;47.80
30708;BME280;17458;48.958;8.284;2023-05-23T10:55:24;100567.16;;;22.95;47.68
30708;BME280;17458;48.958;8.284;2023-05-23T10:58:15;100556.34;;;23.03;47.09
30708;BME280;17458;48.958;8.284;2023-05-23T11:01:05;100561.00;;;23.70;45.40
30708;BME280;17458;48.958;8.284;2023-05-23T11:03:51;100561.78;;;24.51;46.09
30708;BME280;17458;48.958;8.284;2023-05-23T11:06:40;100555.47;;;24.46;45.47
30708;BME280;17458;48.958;8.284;2023-05-23T11:09:27;100558.28;;;23.74;44.96
30708;BME280;17458;48.958;8.284;2023-05-23T11:12:11;100553.66;;;23.02;47.75
30708;BME280;17458;48.958;8.284;2023-05-23T11:14:55;100549.16;;;23.13;47.54
30708;BME280;17458;48.958;8.284;2023-05-23T11:17:49;100553.78;;;23.55;46.69
30708;BME280;17458;48.958;8.284;2023-05-23T11:20:36;100552.78;;;23.45;47.47
30708;BME280;17458;48.958;8.284;2023-05-23T11:23:21;100558.16;;;23.04;47.54
30708;BME280;17458;48.958;8.284;2023-05-23T11:26:28;100560.94;;;23.48;48.25
30708;BME280;17458;48.958;8.284;2023-05-23T11:29:15;100557.34;;;23.40;47.85
30708;BME280;17458;48.958;8.284;2023-05-23T11:31:59;100559.13;;;23.29;47.41
30708;BME280;17458;48.958;8.284;2023-05-23T11:37:34;100545.59;;;24.03;46.47
30708;BME280;17458;48.958;8.284;2023-05-23T11:40:28;100549.22;;;24.13;46.14
30708;BME280;17458;48.958;8.284;2023-05-23T11:43:15;100542.78;;;24.43;46.54
30708;BME280;17458;48.958;8.284;2023-05-23T11:46:07;100538.31;;;24.19;46.12
30708;BME280;17458;48.958;8.284;2023-05-23T11:48:52;100538.38;;;23.95;44.97
30708;BME280;17458;48.958;8.284;2023-05-23T11:51:36;100543.78;;;23.39;46.69
30708;BME280;17458;48.958;8.284;2023-05-23T11:54:24;100535.66;;;23.60;46.35
30708;BME280;17458;48.958;8.284;2023-05-23T11:57:10;100554.53;;;22.94;48.50
30708;BME280;17458;48.958;8.284;2023-05-23T11:59:54;100550.00;;;22.87;48.73
30708;BME280;17458;48.958;8.284;2023-05-23T12:02:39;100540.06;;;22.94;49.42
30708;BME280;17458;48.958;8.284;2023-05-23T12:05:24;100538.34;;;23.14;49.01
30708;BME280;17458;48.958;8.284;2023-05-23T12:08:10;100545.50;;;22.94;48.86
30708;BME280;17458;48.958;8.284;2023-05-23T12:10:58;100534.53;;;22.67;50.25
30708;BME280;17458;48.958;8.284;2023-05-23T12:13:42;100535.47;;;22.70;49.61
30708;BME280;17458;48.958;8.284;2023-05-23T12:16:31;100534.63;;;22.83;49.85
30708;BME280;17458;48.958;8.284;2023-05-23T12:19:16;100534.69;;;23.11;49.30
30708;BME280;17458;48.958;8.284;2023-05-23T12:22:05;100532.94;;;23.29;49.49
30708;BME280;17458;48.958;8.284;2023-05-23T12:24:54;100531.19;;;23.56;48.15
30708;BME280;17458;48.958;8.284;2023-05-23T12:27:40;100536.56;;;23.59;47.21
30708;BME280;17458;48.958;8.284;2023-05-23T12:30:26;100535.66;;;23.43;48.05
30708;BME280;17458;48.958;8.284;2023-05-23T12:33:10;100538.31;;;23.13;48.10
30708;BME280;17458;48.958;8.284;2023-05-23T12:35:55;100530.91;;;22.63;48.48
30708;BME280;17458;48.958;8.284;2023-05-23T12:38:41;100532.91;;;23.31;47.72
30708;BME280;17458;48.958;8.284;2023-05-23T12:41:28;100534.72;;;23.47;47.44
30708;BME280;17458;48.958;8.284;2023-05-23T12:44:14;100529.38;;;23.67;47.50
30708;BME280;17458;48.958;8.284;2023-05-23T12:46:59;100525.75;;;23.57;47.59
30708;BME280;17458;48.958;8.284;2023-05-23T12:49:43;100525.75;;;23.71;47.00
30708;BME280;17458;48.958;8.284;2023-05-23T12:52:29;100528.44;;;24.00;46.69
30708;BME280;17458;48.958;8.284;2023-05-23T12:55:13;100523.94;;;23.70;46.58
30708;BME280;17458;48.958;8.284;2023-05-23T12:57:57;100523.00;;;23.89;44.79
30708;BME280;17458;48.958;8.284;2023-05-23T13:00:41;100523.84;;;24.22;44.62
30708;BME280;17458;48.958;8.284;2023-05-23T13:03:29;100513.88;;;24.28;45.17
30708;BME280;17458;48.958;8.284;2023-05-23T13:06:16;100520.22;;;24.40;45.28
30708;BME280;17458;48.958;8.284;2023-05-23T13:09:00;100522.03;;;24.28;45.44
30708;BME280;17458;48.958;8.284;2023-05-23T13:11:45;100513.03;;;24.02;45.69
30708;BME280;17458;48.958;8.284;2023-05-23T13:14:29;100515.59;;;24.61;43.42
30708;BME280;17458;48.958;8.284;2023-05-23T13:17:14;100516.41;;;24.79;44.14
30708;BME280;17458;48.958;8.284;2023-05-23T13:19:58;100512.84;;;24.69;44.96
30708;BME280;17458;48.958;8.284;2023-05-23T13:22:41;100514.72;;;24.53;46.49
30708;BME280;17458;48.958;8.284;2023-05-23T13:25:26;100517.50;;;24.40;44.92
30708;BME280;17458;48.958;8.284;2023-05-23T13:28:10;100513.91;;;24.19;45.44
30708;BME280;17458;48.958;8.284;2023-05-23T13:30:54;100512.06;;;24.36;44.01
30708;BME280;17458;48.958;8.284;2023-05-23T13:33:38;100514.00;;;23.69;45.67
30708;BME280;17458;48.958;8.284;2023-05-23T13:36:22;100503.13;;;23.86;46.42
30708;BME280;17458;48.958;8.284;2023-05-23T13:39:06;100505.84;;;23.64;46.24
30708;BME280;17458;48.958;8.284;2023-05-23T13:41:50;100501.34;;;23.62;47.56
30708;BME280;17458;48.958;8.284;2023-05-23T13:44:34;100504.00;;;23.98;45.34
30708;BME280;17458;48.958;8.284;2023-05-23T13:47:18;100509.44;;;23.97;45.35
30708;BME280;17458;48.958;8.284;2023-05-23T13:50:03;100505.63;;;24.60;44.90
30708;BME280;17458;48.958;8.284;2023-05-23T13:52:47;100506.72;;;23.98;44.72
30708;BME280;17458;48.958;8.284;2023-05-23T13:55:31;100501.34;;;23.65;45.66
30708;BME280;17458;48.958;8.284;2023-05-23T13:58:15;100503.06;;;24.12;44.24
30708;BME280;17458;48.958;8.284;2023-05-23T14:00:59;100505.78;;;24.09;44.32
30708;BME280;17458;48.958;8.284;2023-05-23T14:03:43;100503.97;;;24.03;43.09
30708;BME280;17458;48.958;8.284;2023-05-23T14:06:29;100501.22;;;24.36;42.21
30708;BME280;17458;48.958;8.284;2023-05-23T14:09:14;100496.69;;;24.31;44.26
30708;BME280;17458;48.958;8.284;2023-05-23T14:11:59;100501.16;;;24.55;44.53
30708;BME280;17458;48.958;8.284;2023-05-23T14:14:43;100498.59;;;23.77;45.11
30708;BME280;17458;48.958;8.284;2023-05-23T14:17:27;100502.22;;;23.96;45.47
30708;BME280;17458;48.958;8.284;2023-05-23T14:20:11;100495.03;;;23.51;45.85
30708;BME280;17458;48.958;8.284;2023-05-23T14:22:55;100497.66;;;24.01;45.38
30708;BME280;17458;48.958;8.284;2023-05-23T14:25:39;100510.22;;;24.48;45.62
30708;BME280;17458;48.958;8.284;2023-05-23T14:28:23;100518.16;;;24.98;44.85
30708;BME280;17458;48.958;8.284;2023-05-23T14:31:07;100505.78;;;24.07;47.15
30708;BME280;17458;48.958;8.284;2023-05-23T14:33:51;100504.84;;;24.31;44.25
30708;BME280;17458;48.958;8.284;2023-05-23T14:36:35;100499.47;;;24.08;44.64
30708;BME280;17458;48.958;8.284;2023-05-23T14:39:19;100508.56;;;23.78;45.54
30708;BME280;17458;48.958;8.284;2023-05-23T14:42:03;100498.50;;;24.35;45.39
30708;BME280;17458;48.958;8.284;2023-05-23T14:44:48;100502.00;;;24.63;45.13